sensor_id;sensor_type;location;lat;lon;timestamp;temperature;humidity
25108;DHT22;13090;53.422;7.670;2022-09-29T00:03:55;8.90;79.50
25108;DHT22;13090;53.422;7.670;2022-09-29T00:08:58;8.90;79.40
25108;DHT22;13090;53.422;7.670;2022-09-29T00:14:02;8.90;79.60
25108;DHT22;13090;53.422;7.670;2022-09-29T00:19:04;8.90;79.50
25108;DHT22;13090;53.422;7.670;2022-09-29T00:24:07;8.80;79.30
25108;DHT22;13090;53.422;7.670;2022-09-29T00:29:11;8.80;79.10
25108;DHT22;13090;53.422;7.670;2022-09-29T00:34:14;8.70;80.00
25108;DHT22;13090;53.422;7.670;2022-09-29T00:39:16;8.70;79.50
25108;DHT22;13090;53.422;7.670;2022-09-29T00:44:56;8.60;80.00
25108;DHT22;13090;53.422;7.670;2022-09-29T00:50:03;8.50;81.10
25108;DHT22;13090;53.422;7.670;2022-09-29T00:55:15;8.50;80.50
25108;DHT22;13090;53.422;7.670;2022-09-29T01:00:20;8.40;80.10
25108;DHT22;13090;53.422;7.670;2022-09-29T01:05:25;8.40;79.90
25108;DHT22;13090;53.422;7.670;2022-09-29T01:10:28;8.40;80.00
25108;DHT22;13090;53.422;7.670;2022-09-29T01:15:33;8.30;80.20
25108;DHT22;13090;53.422;7.670;2022-09-29T01:20:42;8.30;80.20
25108;DHT22;13090;53.422;7.670;2022-09-29T01:26:34;8.20;79.80
25108;DHT22;13090;53.422;7.670;2022-09-29T01:31:49;8.20;80.50
25108;DHT22;13090;53.422;7.670;2022-09-29T01:37:07;8.20;79.90
25108;DHT22;13090;53.422;7.670;2022-09-29T01:42:16;8.10;79.90
25108;DHT22;13090;53.422;7.670;2022-09-29T01:47:24;8.10;80.10
25108;DHT22;13090;53.422;7.670;2022-09-29T01:52:31;8.00;80.10
25108;DHT22;13090;53.422;7.670;2022-09-29T01:57:38;8.00;79.70
25108;DHT22;13090;53.422;7.670;2022-09-29T02:02:46;7.90;79.60
25108;DHT22;13090;53.422;7.670;2022-09-29T02:07:51;7.90;79.90
25108;DHT22;13090;53.422;7.670;2022-09-29T02:12:57;7.80;80.10
25108;DHT22;13090;53.422;7.670;2022-09-29T02:18:08;7.70;80.50
25108;DHT22;13090;53.422;7.670;2022-09-29T02:23:13;7.70;81.10
25108;DHT22;13090;53.422;7.670;2022-09-29T02:28:16;7.70;81.20
25108;DHT22;13090;53.422;7.670;2022-09-29T02:33:23;7.60;81.30
25108;DHT22;13090;53.422;7.670;2022-09-29T02:38:34;7.70;81.50
25108;DHT22;13090;53.422;7.670;2022-09-29T02:44:09;7.60;81.30
25108;DHT22;13090;53.422;7.670;2022-09-29T02:49:31;7.50;81.70
25108;DHT22;13090;53.422;7.670;2022-09-29T02:54:48;7.50;81.60
25108;DHT22;13090;53.422;7.670;2022-09-29T03:00:00;7.50;81.80
25108;DHT22;13090;53.422;7.670;2022-09-29T03:05:05;7.40;81.70
25108;DHT22;13090;53.422;7.670;2022-09-29T03:10:11;7.50;81.80
25108;DHT22;13090;53.422;7.670;2022-09-29T03:15:14;7.50;81.60
25108;DHT22;13090;53.422;7.670;2022-09-29T03:20:18;7.50;81.70
25108;DHT22;13090;53.422;7.670;2022-09-29T03:25:21;7.50;81.60
25108;DHT22;13090;53.422;7.670;2022-09-29T03:30:24;7.40;81.60
25108;DHT22;13090;53.422;7.670;2022-09-29T03:35:28;7.40;81.70
25108;DHT22;13090;53.422;7.670;2022-09-29T03:40:30;7.40;81.50
25108;DHT22;13090;53.422;7.670;2022-09-29T03:45:33;7.40;81.30
25108;DHT22;13090;53.422;7.670;2022-09-29T03:50:37;7.40;81.50
25108;DHT22;13090;53.422;7.670;2022-09-29T03:55:44;7.40;81.70
25108;DHT22;13090;53.422;7.670;2022-09-29T04:00:48;7.40;81.90
25108;DHT22;13090;53.422;7.670;2022-09-29T04:05:52;7.50;82.10
25108;DHT22;13090;53.422;7.670;2022-09-29T04:10:54;7.60;82.30
25108;DHT22;13090;53.422;7.670;2022-09-29T04:15:57;7.60;82.30
25108;DHT22;13090;53.422;7.670;2022-09-29T04:21:06;7.60;82.10
25108;DHT22;13090;53.422;7.670;2022-09-29T04:26:09;7.70;82.20
25108;DHT22;13090;53.422;7.670;2022-09-29T04:31:12;7.70;82.00
25108;DHT22;13090;53.422;7.670;2022-09-29T04:36:17;7.70;82.20
25108;DHT22;13090;53.422;7.670;2022-09-29T04:41:19;7.70;82.20
25108;DHT22;13090;53.422;7.670;2022-09-29T04:46:21;7.70;82.20
25108;DHT22;13090;53.422;7.670;2022-09-29T04:51:26;7.70;82.20
25108;DHT22;13090;53.422;7.670;2022-09-29T05:02:32;7.60;82.60
25108;DHT22;13090;53.422;7.670;2022-09-29T05:07:37;7.60;82.20
25108;DHT22;13090;53.422;7.670;2022-09-29T05:12:40;7.60;82.40
25108;DHT22;13090;53.422;7.670;2022-09-29T05:17:48;7.50;82.20
25108;DHT22;13090;53.422;7.670;2022-09-29T05:22:52;7.50;82.40
25108;DHT22;13090;53.422;7.670;2022-09-29T05:27:56;7.50;82.50
25108;DHT22;13090;53.422;7.670;2022-09-29T05:32:59;7.60;83.40
25108;DHT22;13090;53.422;7.670;2022-09-29T05:38:02;7.60;82.40
25108;DHT22;13090;53.422;7.670;2022-09-29T05:43:05;7.60;82.60
25108;DHT22;13090;53.422;7.670;2022-09-29T05:48:08;7.60;82.80
25108;DHT22;13090;53.422;7.670;2022-09-29T05:53:11;7.70;82.80
25108;DHT22;13090;53.422;7.670;2022-09-29T05:58:14;7.80;82.80
25108;DHT22;13090;53.422;7.670;2022-09-29T06:03:16;7.80;82.80
25108;DHT22;13090;53.422;7.670;2022-09-29T06:08:21;7.90;82.60
25108;DHT22;13090;53.422;7.670;2022-09-29T06:13:24;7.90;82.70
25108;DHT22;13090;53.422;7.670;2022-09-29T06:18:26;8.00;82.90
25108;DHT22;13090;53.422;7.670;2022-09-29T06:23:31;8.10;83.10
25108;DHT22;13090;53.422;7.670;2022-09-29T06:28:35;8.20;83.10
25108;DHT22;13090;53.422;7.670;2022-09-29T06:33:38;8.30;82.80
25108;DHT22;13090;53.422;7.670;2022-09-29T06:38:42;8.30;82.80
25108;DHT22;13090;53.422;7.670;2022-09-29T06:43:45;8.30;82.70
25108;DHT22;13090;53.422;7.670;2022-09-29T06:48:47;8.40;82.80
25108;DHT22;13090;53.422;7.670;2022-09-29T06:53:51;8.40;83.10
25108;DHT22;13090;53.422;7.670;2022-09-29T06:59:06;8.60;83.40
25108;DHT22;13090;53.422;7.670;2022-09-29T07:04:10;8.70;83.70
25108;DHT22;13090;53.422;7.670;2022-09-29T07:09:14;8.80;82.80
25108;DHT22;13090;53.422;7.670;2022-09-29T07:14:19;9.00;83.00
25108;DHT22;13090;53.422;7.670;2022-09-29T07:19:22;9.10;83.20
25108;DHT22;13090;53.422;7.670;2022-09-29T07:24:26;9.30;83.30
25108;DHT22;13090;53.422;7.670;2022-09-29T07:29:29;9.50;83.40
25108;DHT22;13090;53.422;7.670;2022-09-29T07:34:31;9.70;83.20
25108;DHT22;13090;53.422;7.670;2022-09-29T07:39:36;9.80;83.30
25108;DHT22;13090;53.422;7.670;2022-09-29T07:44:38;10.00;83.40
25108;DHT22;13090;53.422;7.670;2022-09-29T07:49:41;10.20;83.40
25108;DHT22;13090;53.422;7.670;2022-09-29T07:54:45;10.30;83.10
25108;DHT22;13090;53.422;7.670;2022-09-29T07:59:47;10.50;83.20
25108;DHT22;13090;53.422;7.670;2022-09-29T08:04:54;10.60;83.00
25108;DHT22;13090;53.422;7.670;2022-09-29T08:10:08;10.80;83.20
25108;DHT22;13090;53.422;7.670;2022-09-29T08:15:19;10.90;83.40
25108;DHT22;13090;53.422;7.670;2022-09-29T08:20:22;11.10;83.20
25108;DHT22;13090;53.422;7.670;2022-09-29T08:25:26;11.20;83.30
25108;DHT22;13090;53.422;7.670;2022-09-29T08:30:29;11.50;83.90
25108;DHT22;13090;53.422;7.670;2022-09-29T08:35:31;11.80;84.20
25108;DHT22;13090;53.422;7.670;2022-09-29T08:40:35;12.20;84.00
25108;DHT22;13090;53.422;7.670;2022-09-29T08:45:40;12.60;84.00
25108;DHT22;13090;53.422;7.670;2022-09-29T08:51:03;13.00;83.60
25108;DHT22;13090;53.422;7.670;2022-09-29T08:56:14;13.40;83.10
25108;DHT22;13090;53.422;7.670;2022-09-29T09:01:22;13.70;83.30
25108;DHT22;13090;53.422;7.670;2022-09-29T09:06:30;14.20;83.40
25108;DHT22;13090;53.422;7.670;2022-09-29T09:17:18;15.00;80.80
25108;DHT22;13090;53.422;7.670;2022-09-29T09:22:22;15.10;80.70
25108;DHT22;13090;53.422;7.670;2022-09-29T09:27:32;15.20;80.40
25108;DHT22;13090;53.422;7.670;2022-09-29T09:32:41;15.30;80.20
25108;DHT22;13090;53.422;7.670;2022-09-29T09:37:47;15.50;80.40
25108;DHT22;13090;53.422;7.670;2022-09-29T09:42:59;15.60;80.70
25108;DHT22;13090;53.422;7.670;2022-09-29T09:48:09;15.90;81.00
25108;DHT22;13090;53.422;7.670;2022-09-29T09:53:17;16.40;81.60
25108;DHT22;13090;53.422;7.670;2022-09-29T09:58:56;17.00;81.70
25108;DHT22;13090;53.422;7.670;2022-09-29T10:04:02;17.80;80.00
25108;DHT22;13090;53.422;7.670;2022-09-29T10:09:05;18.60;80.90
25108;DHT22;13090;53.422;7.670;2022-09-29T10:14:13;19.40;80.00
25108;DHT22;13090;53.422;7.670;2022-09-29T10:19:20;19.90;76.40
25108;DHT22;13090;53.422;7.670;2022-09-29T10:24:26;20.40;74.60
25108;DHT22;13090;53.422;7.670;2022-09-29T10:29:35;20.50;73.20
25108;DHT22;13090;53.422;7.670;2022-09-29T10:34:41;20.60;73.10
25108;DHT22;13090;53.422;7.670;2022-09-29T10:39:45;20.60;72.80
25108;DHT22;13090;53.422;7.670;2022-09-29T10:45:01;20.60;71.90
25108;DHT22;13090;53.422;7.670;2022-09-29T10:50:12;20.60;71.30
25108;DHT22;13090;53.422;7.670;2022-09-29T10:55:17;20.50;70.70
25108;DHT22;13090;53.422;7.670;2022-09-29T11:00:27;20.30;71.00
25108;DHT22;13090;53.422;7.670;2022-09-29T11:05:31;20.10;71.10
25108;DHT22;13090;53.422;7.670;2022-09-29T11:10:36;20.00;71.60
25108;DHT22;13090;53.422;7.670;2022-09-29T11:15:40;19.90;71.20
25108;DHT22;13090;53.422;7.670;2022-09-29T11:20:43;19.90;71.70
25108;DHT22;13090;53.422;7.670;2022-09-29T11:26:12;19.90;71.70
25108;DHT22;13090;53.422;7.670;2022-09-29T11:31:31;20.00;70.50
25108;DHT22;13090;53.422;7.670;2022-09-29T11:36:43;19.90;70.30
25108;DHT22;13090;53.422;7.670;2022-09-29T11:41:59;19.90;70.50
25108;DHT22;13090;53.422;7.670;2022-09-29T11:47:22;19.80;70.10
25108;DHT22;13090;53.422;7.670;2022-09-29T11:52:54;19.60;70.10
25108;DHT22;13090;53.422;7.670;2022-09-29T11:58:07;19.70;71.10
25108;DHT22;13090;53.422;7.670;2022-09-29T12:03:29;19.70;70.90
25108;DHT22;13090;53.422;7.670;2022-09-29T12:08:45;19.90;70.30
25108;DHT22;13090;53.422;7.670;2022-09-29T12:13:55;20.00;69.60
25108;DHT22;13090;53.422;7.670;2022-09-29T12:19:08;19.90;69.80
25108;DHT22;13090;53.422;7.670;2022-09-29T12:24:17;19.90;69.30
25108;DHT22;13090;53.422;7.670;2022-09-29T12:29:30;19.80;69.40
25108;DHT22;13090;53.422;7.670;2022-09-29T12:34:41;19.70;69.10
25108;DHT22;13090;53.422;7.670;2022-09-29T12:39:54;19.50;69.30
25108;DHT22;13090;53.422;7.670;2022-09-29T12:45:02;19.50;70.00
25108;DHT22;13090;53.422;7.670;2022-09-29T12:50:17;19.40;70.00
25108;DHT22;13090;53.422;7.670;2022-09-29T12:55:28;19.40;69.80
25108;DHT22;13090;53.422;7.670;2022-09-29T13:00:34;19.50;69.90
25108;DHT22;13090;53.422;7.670;2022-09-29T13:16:58;19.20;69.00
25108;DHT22;13090;53.422;7.670;2022-09-29T13:22:25;18.80;69.30
25108;DHT22;13090;53.422;7.670;2022-09-29T13:27:32;18.40;69.80
25108;DHT22;13090;53.422;7.670;2022-09-29T13:32:39;18.10;70.60
25108;DHT22;13090;53.422;7.670;2022-09-29T13:37:47;17.90;71.20
25108;DHT22;13090;53.422;7.670;2022-09-29T13:42:52;17.80;71.90
25108;DHT22;13090;53.422;7.670;2022-09-29T13:47:56;17.80;72.60
25108;DHT22;13090;53.422;7.670;2022-09-29T13:58:34;18.10;73.00
25108;DHT22;13090;53.422;7.670;2022-09-29T14:03:39;18.30;73.30
25108;DHT22;13090;53.422;7.670;2022-09-29T14:08:44;18.50;73.00
25108;DHT22;13090;53.422;7.670;2022-09-29T14:13:57;18.70;72.60
25108;DHT22;13090;53.422;7.670;2022-09-29T14:19:05;18.90;71.80
25108;DHT22;13090;53.422;7.670;2022-09-29T14:24:42;19.00;71.60
25108;DHT22;13090;53.422;7.670;2022-09-29T14:29:48;19.10;70.80
25108;DHT22;13090;53.422;7.670;2022-09-29T14:34:53;19.10;70.70
25108;DHT22;13090;53.422;7.670;2022-09-29T14:39:56;19.10;70.80
25108;DHT22;13090;53.422;7.670;2022-09-29T14:45:06;19.00;70.70
25108;DHT22;13090;53.422;7.670;2022-09-29T14:50:23;18.90;70.70
25108;DHT22;13090;53.422;7.670;2022-09-29T14:55:33;18.80;70.90
25108;DHT22;13090;53.422;7.670;2022-09-29T15:01:01;18.70;71.10
25108;DHT22;13090;53.422;7.670;2022-09-29T15:06:11;18.60;70.80
25108;DHT22;13090;53.422;7.670;2022-09-29T15:11:35;18.60;71.20
25108;DHT22;13090;53.422;7.670;2022-09-29T15:16:47;18.60;71.10
25108;DHT22;13090;53.422;7.670;2022-09-29T15:21:58;18.50;71.20
25108;DHT22;13090;53.422;7.670;2022-09-29T15:27:11;18.50;71.60
25108;DHT22;13090;53.422;7.670;2022-09-29T15:32:23;18.40;71.50
25108;DHT22;13090;53.422;7.670;2022-09-29T15:37:26;18.40;71.40
25108;DHT22;13090;53.422;7.670;2022-09-29T15:42:28;18.20;71.60
25108;DHT22;13090;53.422;7.670;2022-09-29T15:47:38;18.10;71.90
25108;DHT22;13090;53.422;7.670;2022-09-29T15:52:41;17.90;72.20
25108;DHT22;13090;53.422;7.670;2022-09-29T15:57:45;17.70;72.30
25108;DHT22;13090;53.422;7.670;2022-09-29T16:02:51;17.50;72.40
25108;DHT22;13090;53.422;7.670;2022-09-29T16:08:02;17.30;72.90
25108;DHT22;13090;53.422;7.670;2022-09-29T16:13:07;17.10;73.10
25108;DHT22;13090;53.422;7.670;2022-09-29T16:18:22;16.90;73.60
25108;DHT22;13090;53.422;7.670;2022-09-29T16:23:27;16.70;74.10
25108;DHT22;13090;53.422;7.670;2022-09-29T16:28:30;16.60;74.40
25108;DHT22;13090;53.422;7.670;2022-09-29T16:33:34;16.50;74.60
25108;DHT22;13090;53.422;7.670;2022-09-29T16:38:41;16.40;74.80
25108;DHT22;13090;53.422;7.670;2022-09-29T16:43:46;16.30;74.80
25108;DHT22;13090;53.422;7.670;2022-09-29T16:48:50;16.20;74.80
25108;DHT22;13090;53.422;7.670;2022-09-29T16:53:57;16.00;74.60
25108;DHT22;13090;53.422;7.670;2022-09-29T16:59:07;15.80;75.80
25108;DHT22;13090;53.422;7.670;2022-09-29T17:04:12;15.70;75.60
25108;DHT22;13090;53.422;7.670;2022-09-29T17:09:18;15.60;75.60
25108;DHT22;13090;53.422;7.670;2022-09-29T17:14:21;15.40;76.10
25108;DHT22;13090;53.422;7.670;2022-09-29T17:19:25;15.40;76.30
25108;DHT22;13090;53.422;7.670;2022-09-29T17:24:27;15.20;76.60
25108;DHT22;13090;53.422;7.670;2022-09-29T17:29:31;15.20;76.70
25108;DHT22;13090;53.422;7.670;2022-09-29T17:34:35;15.10;76.90
25108;DHT22;13090;53.422;7.670;2022-09-29T17:39:37;15.00;77.00
25108;DHT22;13090;53.422;7.670;2022-09-29T17:44:40;14.90;77.00
25108;DHT22;13090;53.422;7.670;2022-09-29T17:49:45;14.80;77.30
25108;DHT22;13090;53.422;7.670;2022-09-29T17:54:47;14.70;77.80
25108;DHT22;13090;53.422;7.670;2022-09-29T17:59:50;14.70;77.90
25108;DHT22;13090;53.422;7.670;2022-09-29T18:04:54;14.70;78.10
25108;DHT22;13090;53.422;7.670;2022-09-29T18:09:57;14.70;78.30
25108;DHT22;13090;53.422;7.670;2022-09-29T18:15:00;14.70;78.30
25108;DHT22;13090;53.422;7.670;2022-09-29T18:20:11;14.70;78.40
25108;DHT22;13090;53.422;7.670;2022-09-29T18:25:16;14.70;78.70
25108;DHT22;13090;53.422;7.670;2022-09-29T18:30:21;14.70;78.40
25108;DHT22;13090;53.422;7.670;2022-09-29T18:35:27;14.70;78.40
25108;DHT22;13090;53.422;7.670;2022-09-29T18:40:31;14.70;78.50
25108;DHT22;13090;53.422;7.670;2022-09-29T18:45:36;14.70;78.30
25108;DHT22;13090;53.422;7.670;2022-09-29T18:50:43;14.60;78.30
25108;DHT22;13090;53.422;7.670;2022-09-29T18:55:46;14.50;78.50
25108;DHT22;13090;53.422;7.670;2022-09-29T19:00:51;14.50;78.60
25108;DHT22;13090;53.422;7.670;2022-09-29T19:05:56;14.40;78.40
25108;DHT22;13090;53.422;7.670;2022-09-29T19:10:59;14.40;78.80
25108;DHT22;13090;53.422;7.670;2022-09-29T19:16:02;14.40;78.90
25108;DHT22;13090;53.422;7.670;2022-09-29T19:21:10;14.40;78.90
25108;DHT22;13090;53.422;7.670;2022-09-29T19:26:20;14.40;79.30
25108;DHT22;13090;53.422;7.670;2022-09-29T19:31:24;14.50;79.30
25108;DHT22;13090;53.422;7.670;2022-09-29T19:36:30;14.40;78.90
25108;DHT22;13090;53.422;7.670;2022-09-29T19:41:36;14.50;79.00
25108;DHT22;13090;53.422;7.670;2022-09-29T19:46:40;14.40;78.70
25108;DHT22;13090;53.422;7.670;2022-09-29T19:51:45;14.40;78.70
25108;DHT22;13090;53.422;7.670;2022-09-29T19:56:50;14.40;79.00
25108;DHT22;13090;53.422;7.670;2022-09-29T20:01:54;14.30;79.00
25108;DHT22;13090;53.422;7.670;2022-09-29T20:06:59;14.40;79.10
25108;DHT22;13090;53.422;7.670;2022-09-29T20:12:01;14.30;79.10
25108;DHT22;13090;53.422;7.670;2022-09-29T20:17:04;14.30;79.00
25108;DHT22;13090;53.422;7.670;2022-09-29T20:22:08;14.30;79.10
25108;DHT22;13090;53.422;7.670;2022-09-29T20:27:10;14.20;79.00
25108;DHT22;13090;53.422;7.670;2022-09-29T20:32:13;14.10;78.90
25108;DHT22;13090;53.422;7.670;2022-09-29T20:37:17;14.00;79.00
25108;DHT22;13090;53.422;7.670;2022-09-29T20:42:20;13.90;79.10
25108;DHT22;13090;53.422;7.670;2022-09-29T20:47:23;13.80;79.00
25108;DHT22;13090;53.422;7.670;2022-09-29T20:52:27;13.80;79.10
25108;DHT22;13090;53.422;7.670;2022-09-29T20:57:31;13.70;79.40
25108;DHT22;13090;53.422;7.670;2022-09-29T21:02:33;13.70;79.70
25108;DHT22;13090;53.422;7.670;2022-09-29T21:07:37;13.60;79.80
25108;DHT22;13090;53.422;7.670;2022-09-29T21:12:39;13.70;80.10
25108;DHT22;13090;53.422;7.670;2022-09-29T21:17:42;13.60;80.10
25108;DHT22;13090;53.422;7.670;2022-09-29T21:22:46;13.60;80.00
25108;DHT22;13090;53.422;7.670;2022-09-29T21:27:49;13.70;80.10
25108;DHT22;13090;53.422;7.670;2022-09-29T21:32:51;13.60;79.60
25108;DHT22;13090;53.422;7.670;2022-09-29T21:37:55;13.50;79.70
25108;DHT22;13090;53.422;7.670;2022-09-29T21:42:58;13.30;80.10
25108;DHT22;13090;53.422;7.670;2022-09-29T21:48:00;13.20;80.00
25108;DHT22;13090;53.422;7.670;2022-09-29T21:53:05;13.10;80.60
25108;DHT22;13090;53.422;7.670;2022-09-29T21:58:07;13.10;80.90
25108;DHT22;13090;53.422;7.670;2022-09-29T22:03:10;13.00;81.10
25108;DHT22;13090;53.422;7.670;2022-09-29T22:08:14;13.00;81.40
25108;DHT22;13090;53.422;7.670;2022-09-29T22:13:16;13.00;81.70
25108;DHT22;13090;53.422;7.670;2022-09-29T22:18:20;13.00;81.70
25108;DHT22;13090;53.422;7.670;2022-09-29T22:23:26;13.00;81.70
25108;DHT22;13090;53.422;7.670;2022-09-29T22:28:29;13.10;82.70
25108;DHT22;13090;53.422;7.670;2022-09-29T22:33:32;13.20;81.90
25108;DHT22;13090;53.422;7.670;2022-09-29T22:38:37;13.20;81.80
25108;DHT22;13090;53.422;7.670;2022-09-29T22:43:40;13.30;81.90
25108;DHT22;13090;53.422;7.670;2022-09-29T22:48:43;13.30;81.70
25108;DHT22;13090;53.422;7.670;2022-09-29T22:53:47;13.30;81.70
25108;DHT22;13090;53.422;7.670;2022-09-29T22:58:50;13.30;81.80
25108;DHT22;13090;53.422;7.670;2022-09-29T23:03:52;13.30;81.70
25108;DHT22;13090;53.422;7.670;2022-09-29T23:08:57;13.30;81.80
25108;DHT22;13090;53.422;7.670;2022-09-29T23:14:00;13.30;81.80
25108;DHT22;13090;53.422;7.670;2022-09-29T23:19:02;13.30;81.70
25108;DHT22;13090;53.422;7.670;2022-09-29T23:24:06;13.40;81.80
25108;DHT22;13090;53.422;7.670;2022-09-29T23:29:10;13.30;81.70
25108;DHT22;13090;53.422;7.670;2022-09-29T23:34:13;13.30;81.50
25108;DHT22;13090;53.422;7.670;2022-09-29T23:39:17;13.20;81.70
25108;DHT22;13090;53.422;7.670;2022-09-29T23:44:21;13.20;81.90
25108;DHT22;13090;53.422;7.670;2022-09-29T23:49:25;13.10;81.70
25108;DHT22;13090;53.422;7.670;2022-09-29T23:54:30;13.00;81.50
25108;DHT22;13090;53.422;7.670;2022-09-29T23:59:32;13.00;81.70
